Archival Weather

Half Moon Bay

Half Moon Bay, California (KHAF)

Report from: Thursday, September 21, 2023 4:15 AM PDT
Current time: Saturday, February 24, 2024 8:23 AM PST

Current weather – Weather history – Daily summaries
Weather forecast

Temperature14.0°C (57.2°F)
Dew point11.0°C (51.8°F)
Winds 8 kts (4.1 m/s, 9.2 mph) Southeast (130°)
Visibility5 mi. (8 km)
Altimeter29.85 in.Hg (1011 mB)
Relative humidity82 %
Density altitude148 ft. (45 m)
Remarks Fully automated report
Automated weather observing station with precipitation discriminator
Flight conditions Visual Meteorological Conditions
Raw dataKHAF 211115Z AUTO 13008KT 5SM HZ 14/11 A2985 RMK AO2
An error has occurred. This application may no longer respond until reloaded. Reload 🗙